Time;durP1;ratioP1;P1;durP2;ratioP2;P2;SDS_P1;SDS_P2;PMS_P1;PMS_P2;Temp;Humidity;BMP_temperature;BMP_pressure;BME280_temperature;BME280_humidity;BME280_pressure;Samples;Min_cycle;Max_cycle;Signal;HPM_P1;HPM_P2
2023/07/12 00:00:43;;;;;;;1999.90;999.90;;;17.60;99.90;;;;;;5032673;28;20048;-70
2023/07/12 00:03:09;;;;;;;1999.90;999.90;;;17.60;99.90;;;;;;5036784;28;20124;-70
2023/07/12 00:05:35;;;;;;;1999.90;999.90;;;17.60;99.90;;;;;;5027817;28;20045;-71
2023/07/12 00:08:02;;;;;;;1999.90;999.90;;;17.60;99.90;;;;;;5043988;28;20040;-71
2023/07/12 00:10:31;;;;;;;1999.90;999.90;;;17.60;99.90;;;;;;5043403;28;20037;-71
2023/07/12 00:12:57;;;;;;;1999.90;999.90;;;17.60;99.90;;;;;;5046760;28;21103;-70
2023/07/12 00:15:26;;;;;;;1999.90;999.90;;;17.60;99.90;;;;;;5042092;28;20052;-71
2023/07/12 00:17:53;;;;;;;1999.90;999.90;;;17.60;99.90;;;;;;5035620;28;20115;-71
2023/07/12 00:20:25;;;;;;;1999.90;999.90;;;17.60;99.90;;;;;;5042805;28;20044;-71
2023/07/12 00:22:51;;;;;;;1999.90;999.90;;;17.60;99.90;;;;;;5048133;28;20148;-71
2023/07/12 00:25:19;;;;;;;1999.90;999.90;;;17.60;99.90;;;;;;5043119;28;20503;-71
2023/07/12 00:27:44;;;;;;;1999.90;999.90;;;17.50;99.90;;;;;;5038134;28;20041;-71
2023/07/12 00:30:26;;;;;;;1999.90;999.90;;;17.50;99.90;;;;;;5041951;28;20110;-70
2023/07/12 00:32:54;;;;;;;1999.90;999.90;;;17.50;99.90;;;;;;5052635;28;20485;-71
2023/07/12 00:35:23;;;;;;;1999.90;999.90;;;17.50;99.90;;;;;;5056208;28;20116;-71
2023/07/12 00:38:00;;;;;;;1999.90;999.90;;;17.50;99.90;;;;;;5029743;28;20461;-71
2023/07/12 00:40:37;;;;;;;1999.90;999.90;;;17.50;99.90;;;;;;5044863;28;20059;-70
2023/07/12 00:43:23;;;;;;;1999.90;999.90;;;17.40;99.90;;;;;;5040900;28;20033;-71
2023/07/12 00:45:51;;;;;;;1999.90;999.90;;;17.40;99.90;;;;;;5048861;28;20048;-71
2023/07/12 00:48:19;;;;;;;1999.90;999.90;;;17.40;99.90;;;;;;5044050;28;20047;-71
2023/07/12 00:50:46;;;;;;;1999.90;999.90;;;17.40;99.90;;;;;;5044853;28;20052;-70
2023/07/12 00:53:18;;;;;;;1999.90;999.90;;;17.40;99.90;;;;;;5047494;28;20374;-71
2023/07/12 00:56:00;;;;;;;1999.90;999.90;;;17.30;99.90;;;;;;5044577;28;20076;-71
2023/07/12 00:58:31;;;;;;;1999.90;999.90;;;17.30;99.90;;;;;;5047206;28;20041;-70
2023/07/12 01:01:00;;;;;;;1999.90;999.90;;;17.30;99.90;;;;;;5025821;28;20045;-70
2023/07/12 01:03:29;;;;;;;1999.90;999.90;;;17.30;99.90;;;;;;5035178;28;20091;-71
2023/07/12 01:05:55;;;;;;;1999.90;999.90;;;17.20;99.90;;;;;;5037236;28;20049;-71
2023/07/12 01:08:21;;;;;;;1999.90;999.90;;;17.20;99.90;;;;;;5042179;28;20052;-71
2023/07/12 01:10:47;;;;;;;1999.90;999.90;;;17.20;99.90;;;;;;5030091;28;20036;-70
2023/07/12 01:13:13;;;;;;;1999.90;999.90;;;17.20;99.90;;;;;;5046796;28;20048;-70
2023/07/12 01:15:39;;;;;;;1999.90;999.90;;;17.20;99.90;;;;;;5038147;28;20041;-71
2023/07/12 01:18:06;;;;;;;1999.90;999.90;;;17.20;99.90;;;;;;5045366;28;20045;-72
2023/07/12 01:20:38;;;;;;;1999.90;999.90;;;17.20;99.90;;;;;;5053646;28;20401;-70
2023/07/12 01:23:04;;;;;;;1999.90;999.90;;;17.20;99.90;;;;;;5040860;28;20057;-71
2023/07/12 01:25:45;;;;;;;1999.90;999.90;;;17.20;99.90;;;;;;5047492;28;20044;-71
2023/07/12 01:28:12;;;;;;;1999.90;999.90;;;17.20;99.90;;;;;;5041971;28;20060;-71
2023/07/12 01:30:39;;;;;;;1999.90;999.90;;;17.20;99.90;;;;;;5035139;28;20080;-70
2023/07/12 01:33:05;;;;;;;1999.90;999.90;;;17.20;99.90;;;;;;5045376;28;20052;-70
2023/07/12 01:35:31;;;;;;;1999.90;999.90;;;17.10;99.90;;;;;;5046169;28;20045;-71
2023/07/12 01:37:57;;;;;;;1999.90;999.90;;;17.10;99.90;;;;;;5043303;28;20454;-70
2023/07/12 01:40:23;;;;;;;1999.90;999.90;;;17.10;99.90;;;;;;5043178;28;20048;-70
2023/07/12 01:42:49;;;;;;;1999.90;999.90;;;17.00;99.90;;;;;;5046182;28;20037;-70
2023/07/12 01:45:15;;;;;;;1999.90;999.90;;;17.00;99.90;;;;;;5038409;28;20124;-71
2023/07/12 01:47:40;;;;;;;1999.90;999.90;;;17.00;99.90;;;;;;5042380;28;20052;-71
2023/07/12 01:50:06;;;;;;;1999.90;999.90;;;17.00;99.90;;;;;;5052783;28;20135;-70
2023/07/12 01:52:32;;;;;;;1999.90;999.90;;;17.00;99.90;;;;;;5040744;28;20052;-70
2023/07/12 01:54:57;;;;;;;1999.90;999.90;;;17.00;99.90;;;;;;5054357;28;20043;-71
2023/07/12 01:57:23;;;;;;;1999.90;999.90;;;17.00;99.90;;;;;;5029824;28;20098;-71
2023/07/12 01:59:49;;;;;;;1999.90;999.90;;;16.90;99.90;;;;;;5020070;28;20041;-70
2023/07/12 02:02:14;;;;;;;1999.90;999.90;;;17.00;99.90;;;;;;5039373;28;20041;-70
2023/07/12 02:04:40;;;;;;;1999.90;999.90;;;17.00;99.90;;;;;;5051983;28;20065;-70
2023/07/12 02:07:06;;;;;;;1999.90;999.90;;;17.00;99.90;;;;;;5023103;28;20044;-71
2023/07/12 02:09:41;;;;;;;1999.90;999.90;;;17.00;99.90;;;;;;5035985;28;20090;-71
2023/07/12 02:12:07;;;;;;;1999.90;999.90;;;17.00;99.90;;;;;;5033730;28;20119;-71
2023/07/12 02:14:32;;;;;;;1999.90;999.90;;;16.90;99.90;;;;;;5017070;28;20486;-71
2023/07/12 02:16:58;;;;;;;1999.90;999.90;;;16.90;99.90;;;;;;5055143;28;20516;-70
2023/07/12 02:19:24;;;;;;;1999.90;999.90;;;16.90;99.90;;;;;;5029805;28;20044;-72
2023/07/12 02:21:49;;;;;;;1999.90;999.90;;;16.90;99.90;;;;;;5042912;28;20107;-71
2023/07/12 02:24:15;;;;;;;1999.90;999.90;;;16.90;99.90;;;;;;5047036;28;20132;-70
2023/07/12 02:26:41;;;;;;;1999.90;999.90;;;16.90;99.90;;;;;;5011179;28;20469;-71
2023/07/12 02:29:07;;;;;;;1999.90;999.90;;;16.90;99.90;;;;;;5045330;28;20124;-71
2023/07/12 02:31:33;;;;;;;1999.90;999.90;;;16.90;99.90;;;;;;5025694;28;20036;-71
2023/07/12 02:33:59;;;;;;;1999.90;999.90;;;16.90;99.90;;;;;;5039999;28;20119;-70
2023/07/12 02:36:25;;;;;;;1999.90;999.90;;;16.90;99.90;;;;;;5043713;28;20041;-71
2023/07/12 02:38:51;;;;;;;1999.90;999.90;;;16.90;99.90;;;;;;5031463;28;20049;-71
2023/07/12 02:41:17;;;;;;;1999.90;999.90;;;16.80;99.90;;;;;;5044462;28;20401;-70
2023/07/12 02:43:44;;;;;;;1999.90;999.90;;;16.80;99.90;;;;;;5038829;28;20524;-70
2023/07/12 02:46:10;;;;;;;1999.90;999.90;;;16.80;99.90;;;;;;5030750;28;20045;-70
2023/07/12 02:48:37;;;;;;;1999.90;999.90;;;16.80;99.90;;;;;;5048265;28;20043;-70
2023/07/12 02:51:02;;;;;;;1999.90;999.90;;;16.80;99.90;;;;;;5038947;28;20037;-70
2023/07/12 02:53:28;;;;;;;1999.90;999.90;;;16.80;99.90;;;;;;5028643;28;20481;-70
2023/07/12 02:55:54;;;;;;;1999.90;999.90;;;16.80;99.90;;;;;;5042928;28;20045;-70
2023/07/12 02:58:21;;;;;;;1999.90;999.90;;;16.70;99.90;;;;;;5039786;28;20049;-70
2023/07/12 03:00:47;;;;;;;1999.90;999.90;;;16.70;99.90;;;;;;5037864;28;20037;-70
2023/07/12 03:03:13;;;;;;;1999.90;999.90;;;16.70;99.90;;;;;;5040971;28;20515;-70
2023/07/12 03:05:40;;;;;;;1999.90;999.90;;;16.70;99.90;;;;;;5044387;28;20106;-70
2023/07/12 03:08:06;;;;;;;1999.90;999.90;;;16.70;99.90;;;;;;5044825;28;20049;-69
2023/07/12 03:10:34;;;;;;;1999.90;999.90;;;16.70;99.90;;;;;;5044075;28;20509;-70
2023/07/12 03:13:00;;;;;;;1999.90;999.90;;;16.70;99.90;;;;;;5041886;28;20412;-70
2023/07/12 03:15:25;;;;;;;1999.90;999.90;;;16.70;99.90;;;;;;5027145;28;20045;-70
2023/07/12 03:17:51;;;;;;;1999.90;999.90;;;16.70;99.90;;;;;;5020116;28;20044;-70
2023/07/12 03:20:17;;;;;;;1999.90;999.90;;;16.70;99.90;;;;;;5045108;28;20033;-70
2023/07/12 03:22:42;;;;;;;1999.90;999.90;;;16.60;99.90;;;;;;5027376;28;20029;-71
2023/07/12 03:25:08;;;;;;;1999.90;999.90;;;16.60;99.90;;;;;;5045354;28;20045;-70
2023/07/12 03:27:33;;;;;;;1999.90;999.90;;;16.60;99.90;;;;;;5045997;28;20408;-70
2023/07/12 03:29:59;;;;;;;1999.90;999.90;;;16.60;99.90;;;;;;5040305;28;20474;-70
2023/07/12 03:32:25;;;;;;;1999.90;999.90;;;16.60;99.90;;;;;;5048054;28;20401;-70
2023/07/12 03:34:50;;;;;;;1999.90;999.90;;;16.60;99.90;;;;;;5039777;28;20041;-70
2023/07/12 03:37:16;;;;;;;1999.90;999.90;;;16.60;99.90;;;;;;5040286;28;20041;-70
2023/07/12 03:39:43;;;;;;;1999.90;999.90;;;16.60;99.90;;;;;;5049164;28;20098;-70
2023/07/12 03:42:09;;;;;;;1999.90;999.90;;;16.60;99.90;;;;;;5039634;28;20073;-70
2023/07/12 03:44:35;;;;;;;1999.90;999.90;;;16.60;99.90;;;;;;5041044;28;20453;-70
2023/07/12 03:47:01;;;;;;;1999.90;999.90;;;16.60;99.90;;;;;;5022964;28;20189;-70
2023/07/12 03:49:27;;;;;;;1999.90;999.90;;;16.60;99.90;;;;;;5042252;28;20497;-70
2023/07/12 03:51:53;;;;;;;1999.90;999.90;;;16.60;99.90;;;;;;5041147;28;20496;-70
2023/07/12 03:54:21;;;;;;;1999.90;999.90;;;16.60;99.90;;;;;;5035332;28;20066;-71
2023/07/12 03:56:47;;;;;;;1999.90;999.90;;;16.60;99.90;;;;;;5025786;28;20045;-70
2023/07/12 03:59:12;;;;;;;1999.90;999.90;;;16.60;99.90;;;;;;5029489;28;20102;-70
2023/07/12 04:01:38;;;;;;;1999.90;999.90;;;16.60;99.90;;;;;;5052064;28;20055;-71
2023/07/12 04:04:04;;;;;;;1999.90;999.90;;;16.60;99.90;;;;;;5043007;28;20052;-70
2023/07/12 04:06:31;;;;;;;1999.90;999.90;;;16.60;99.90;;;;;;5041296;28;20131;-71
2023/07/12 04:08:56;;;;;;;1999.90;999.90;;;16.60;99.90;;;;;;5041173;28;20516;-70
2023/07/12 04:11:31;;;;;;;1999.90;999.90;;;16.60;99.90;;;;;;5048659;28;20072;-70
2023/07/12 04:13:59;;;;;;;1999.90;999.90;;;16.60;99.90;;;;;;5038191;28;20132;-70
2023/07/12 04:16:25;;;;;;;1999.90;999.90;;;16.70;99.90;;;;;;5048988;28;20468;-70
2023/07/12 04:18:54;;;;;;;1999.90;999.90;;;16.60;99.90;;;;;;5057099;28;20049;-70
2023/07/12 04:21:20;;;;;;;1999.90;999.90;;;16.60;99.90;;;;;;5050671;28;20147;-70
2023/07/12 04:23:47;;;;;;;1999.90;999.90;;;16.60;99.90;;;;;;5062539;28;20036;-71
2023/07/12 04:26:14;;;;;;;1999.90;999.90;;;16.70;99.90;;;;;;5045570;28;20873;-70
2023/07/12 04:28:40;;;;;;;1999.90;999.90;;;16.70;99.90;;;;;;5047169;28;20139;-70
2023/07/12 04:31:09;;;;;;;1999.90;999.90;;;16.60;99.90;;;;;;5024097;28;20048;-70
2023/07/12 04:33:35;;;;;;;1999.90;999.90;;;16.60;99.90;;;;;;5036228;28;20049;-71
2023/07/12 04:36:09;;;;;;;1999.90;999.90;;;16.60;99.90;;;;;;5045445;28;20103;-71
2023/07/12 04:38:35;;;;;;;1999.90;999.90;;;16.60;99.90;;;;;;5045503;28;20437;-71
2023/07/12 04:41:01;;;;;;;1999.90;999.90;;;16.60;99.90;;;;;;5025551;28;20048;-71
2023/07/12 04:43:27;;;;;;;1999.90;999.90;;;16.60;99.90;;;;;;5058755;28;20045;-70
2023/07/12 04:45:53;;;;;;;1999.90;999.90;;;16.60;99.90;;;;;;5059937;28;20040;-70
2023/07/12 04:48:19;;;;;;;1999.90;999.90;;;16.60;99.90;;;;;;5045464;28;20033;-71
2023/07/12 04:50:45;;;;;;;1999.90;999.90;;;16.60;99.90;;;;;;5023834;28;20077;-71
2023/07/12 04:53:12;;;;;;;1999.90;999.90;;;16.70;99.90;;;;;;5048235;28;20471;-71
2023/07/12 04:55:37;;;;;;;1999.90;999.90;;;16.80;99.90;;;;;;5059888;28;20041;-71
2023/07/12 04:58:03;;;;;;;1999.90;999.90;;;16.80;99.90;;;;;;5037728;28;20051;-71
2023/07/12 05:00:29;;;;;;;1999.90;999.90;;;16.80;99.90;;;;;;5043981;28;20242;-70
2023/07/12 05:02:54;;;;;;;1999.90;999.90;;;17.00;99.90;;;;;;5021938;28;20515;-70
2023/07/12 05:05:21;;;;;;;1999.90;999.90;;;17.00;99.90;;;;;;5043125;28;20608;-71
2023/07/12 05:07:50;;;;;;;1999.90;999.90;;;17.20;99.90;;;;;;5048367;28;20152;-71
2023/07/12 05:10:15;;;;;;;1999.90;999.90;;;17.30;99.90;;;;;;5059689;28;20140;-71
2023/07/12 05:12:42;;;;;;;1999.90;999.90;;;17.30;99.90;;;;;;5036639;28;20156;-70
2023/07/12 05:15:10;;;;;;;1999.90;999.90;;;17.30;99.90;;;;;;5041958;28;20044;-71
2023/07/12 05:17:36;;;;;;;1999.90;999.90;;;17.40;99.90;;;;;;5028741;28;20437;-70
2023/07/12 05:20:06;;;;;;;1999.90;999.90;;;17.40;99.90;;;;;;5047334;28;20041;-70
2023/07/12 05:22:33;;;;;;;1999.90;999.90;;;17.40;99.90;;;;;;5032090;28;20037;-71
2023/07/12 05:24:59;;;;;;;1999.90;999.90;;;17.40;99.90;;;;;;5041389;28;20063;-71
2023/07/12 05:27:25;;;;;;;1999.90;999.90;;;17.40;99.90;;;;;;5040045;28;20087;-71
2023/07/12 05:29:51;;;;;;;1999.90;999.90;;;17.50;99.90;;;;;;5026513;28;20052;-71
2023/07/12 05:32:17;;;;;;;1999.90;999.90;;;17.50;99.90;;;;;;5029329;28;20039;-71
2023/07/12 05:34:43;;;;;;;1999.90;999.90;;;17.70;99.90;;;;;;5041676;28;20166;-71
2023/07/12 05:37:10;;;;;;;1999.90;999.90;;;17.70;99.90;;;;;;5042912;28;20045;-71
2023/07/12 05:39:36;;;;;;;1999.90;999.90;;;17.80;99.90;;;;;;5059961;28;20054;-71
2023/07/12 05:42:02;;;;;;;1999.90;999.90;;;17.90;99.90;;;;;;5045692;28;20033;-71
2023/07/12 05:44:28;;;;;;;1999.90;999.90;;;18.00;99.90;;;;;;5030153;28;20095;-71
2023/07/12 05:46:54;;;;;;;1999.90;999.90;;;17.90;99.90;;;;;;5044631;28;20037;-71
2023/07/12 05:49:20;;;;;;;1999.90;999.90;;;17.90;99.90;;;;;;5045986;28;20075;-71
2023/07/12 05:51:46;;;;;;;1999.90;999.90;;;17.80;99.90;;;;;;5025912;28;20047;-71
2023/07/12 05:54:12;;;;;;;1999.90;999.90;;;17.80;99.90;;;;;;5042154;28;20045;-71
2023/07/12 05:56:38;;;;;;;1999.90;999.90;;;17.70;99.90;;;;;;5039430;28;20045;-71
2023/07/12 05:59:04;;;;;;;1999.90;999.90;;;17.70;99.90;;;;;;5040121;28;20060;-71
2023/07/12 06:01:30;;;;;;;1999.90;999.90;;;17.60;99.90;;;;;;5045053;28;20043;-71
2023/07/12 06:03:56;;;;;;;1999.90;999.90;;;17.60;99.90;;;;;;5040623;28;20057;-71
2023/07/12 06:06:21;;;;;;;1999.90;999.90;;;17.70;99.90;;;;;;5042852;28;20053;-71
2023/07/12 06:08:47;;;;;;;1999.90;999.90;;;17.80;99.90;;;;;;5027401;28;20102;-71
2023/07/12 06:11:13;;;;;;;1999.90;999.90;;;17.90;99.90;;;;;;5026074;28;20127;-71
2023/07/12 06:13:39;;;;;;;1999.90;999.90;;;18.30;99.90;;;;;;5041473;28;20037;-71
2023/07/12 06:16:05;;;;;;;1999.90;999.90;;;18.60;99.90;;;;;;5040243;28;20496;-71
2023/07/12 06:18:31;;;;;;;1999.90;999.90;;;18.80;99.90;;;;;;5040043;28;20128;-71
2023/07/12 06:20:58;;;;;;;1999.90;999.90;;;19.00;99.90;;;;;;5043281;28;20067;-71
2023/07/12 06:23:25;;;;;;;1999.90;999.90;;;19.00;99.90;;;;;;5020176;28;20516;-71
2023/07/12 06:25:51;;;;;;;1999.90;999.90;;;19.10;99.90;;;;;;5022339;28;20089;-71
2023/07/12 06:28:17;;;;;;;1999.90;999.90;;;19.30;99.90;;;;;;5038489;28;20107;-71
2023/07/12 06:30:43;;;;;;;1999.90;999.90;;;19.40;99.90;;;;;;5039943;28;20157;-71
2023/07/12 06:33:10;;;;;;;1999.90;999.90;;;19.70;99.90;;;;;;5056456;28;20135;-71
2023/07/12 06:35:35;;;;;;;1999.90;999.90;;;20.20;99.90;;;;;;5038163;28;20392;-71
2023/07/12 06:38:01;;;;;;;1999.90;999.90;;;20.60;99.90;;;;;;5040238;28;20041;-71
2023/07/12 06:40:26;;;;;;;1999.90;999.90;;;20.60;99.90;;;;;;5044624;28;20051;-71
2023/07/12 06:42:52;;;;;;;1999.90;999.90;;;21.10;99.90;;;;;;5039688;28;20073;-71
2023/07/12 06:45:18;;;;;;;336.00;319.88;;;21.40;99.90;;;;;;5039085;28;20041;-71
2023/07/12 06:47:44;;;;;;;1999.90;999.90;;;21.00;99.90;;;;;;5037081;28;20037;-71
2023/07/12 06:50:10;;;;;;;320.35;305.00;;;20.70;99.90;;;;;;5035315;28;20045;-71
2023/07/12 06:52:35;;;;;;;343.98;327.60;;;20.60;99.90;;;;;;5042929;28;20045;-71
2023/07/12 06:55:01;;;;;;;356.85;339.73;;;20.50;99.90;;;;;;5026320;28;20555;-71
2023/07/12 06:57:27;;;;;;;1999.90;999.90;;;20.40;99.90;;;;;;5029755;28;20832;-71
2023/07/12 06:59:52;;;;;;;342.25;325.90;;;20.70;99.90;;;;;;5045218;28;20124;-71
2023/07/12 07:02:18;;;;;;;312.48;298.30;;;21.20;99.90;;;;;;5044643;28;20055;-71
2023/07/12 07:04:44;;;;;;;394.85;375.85;;;21.00;99.90;;;;;;5033287;28;20056;-71
2023/07/12 07:07:09;;;;;;;252.60;241.13;;;20.80;99.90;;;;;;5040735;28;20499;-71
2023/07/12 07:09:38;;;;;;;275.48;262.98;;;20.80;99.90;;;;;;5019283;28;20038;-71
2023/07/12 07:12:05;;;;;;;280.67;267.88;;;20.80;99.90;;;;;;5036630;28;20080;-71
2023/07/12 07:14:31;;;;;;;1999.90;999.90;;;21.10;99.90;;;;;;5022777;28;20041;-71
2023/07/12 07:16:56;;;;;;;287.42;274.10;;;21.30;99.90;;;;;;5051336;28;20048;-71
2023/07/12 07:19:22;;;;;;;274.88;262.35;;;22.10;99.90;;;;;;5027521;28;20045;-71
2023/07/12 07:21:49;;;;;;;185.73;176.65;;;22.60;99.90;;;;;;5023666;28;20045;-71
2023/07/12 07:24:16;;;;;;;207.18;197.55;;;23.00;99.90;;;;;;5051155;28;20412;-71
2023/07/12 07:26:43;;;;;;;340.83;323.30;;;23.50;99.90;;;;;;5052823;28;20048;-71
2023/07/12 07:29:08;;;;;;;201.57;192.00;;;23.40;99.90;;;;;;5036580;28;20044;-71
2023/07/12 07:31:34;;;;;;;292.23;278.40;;;22.90;99.90;;;;;;5034236;28;20041;-71
2023/07/12 07:34:00;;;;;;;294.50;280.52;;;23.10;99.90;;;;;;5024526;28;20124;-71
2023/07/12 07:36:25;;;;;;;314.63;298.88;;;23.40;99.90;;;;;;5038025;28;20700;-71
2023/07/12 07:38:51;;;;;;;263.88;251.25;;;23.30;99.90;;;;;;5034604;28;20049;-71
2023/07/12 07:41:16;;;;;;;430.27;407.30;;;22.80;99.90;;;;;;5022822;28;20049;-71
2023/07/12 07:43:44;;;;;;;312.48;297.25;;;22.20;99.90;;;;;;5053701;28;20040;-71
2023/07/12 07:46:11;;;;;;;283.35;269.90;;;21.80;99.90;;;;;;5034679;28;20046;-71
2023/07/12 07:48:37;;;;;;;293.35;279.83;;;21.50;99.90;;;;;;5027454;28;20042;-71
2023/07/12 07:51:03;;;;;;;397.05;376.95;;;22.30;99.90;;;;;;5039699;28;20044;-71
2023/07/12 07:53:29;;;;;;;337.98;320.45;;;22.80;99.90;;;;;;5037534;28;20037;-71
2023/07/12 07:55:54;;;;;;;374.38;355.10;;;23.10;99.90;;;;;;5038883;28;20102;-70
2023/07/12 07:58:21;;;;;;;341.05;323.58;;;23.00;99.90;;;;;;5031459;28;20068;-70
2023/07/12 08:00:47;;;;;;;382.02;362.63;;;23.20;99.90;;;;;;5037688;28;20076;-70
2023/07/12 08:03:13;;;;;;;405.92;384.67;;;23.90;99.90;;;;;;5034502;28;20527;-70
2023/07/12 08:05:39;;;;;;;346.80;330.45;;;24.30;99.90;;;;;;5032492;28;20045;-71
2023/07/12 08:08:05;;;;;;;477.52;452.02;;;24.20;99.90;;;;;;5038583;28;20056;-70
2023/07/12 08:10:32;;;;;;;477.67;453.02;;;23.60;99.90;;;;;;5032320;28;20041;-71
2023/07/12 08:12:58;;;;;;;368.50;349.63;;;22.70;99.90;;;;;;5034159;28;20116;-71
2023/07/12 08:15:25;;;;;;;326.08;309.38;;;21.70;99.90;;;;;;5040853;28;20036;-71
2023/07/12 08:17:50;;;;;;;243.73;232.15;;;21.00;99.90;;;;;;5024686;28;20146;-71
2023/07/12 08:20:16;;;;;;;308.92;293.67;;;20.50;99.90;;;;;;5025019;28;20092;-71
2023/07/12 08:22:42;;;;;;;347.77;330.42;;;20.20;99.90;;;;;;5037840;28;20548;-71
2023/07/12 08:25:09;;;;;;;348.75;332.10;;;19.90;99.90;;;;;;5021852;28;20382;-71
2023/07/12 08:27:35;;;;;;;1999.90;999.90;;;19.80;99.90;;;;;;5039760;28;20057;-71
2023/07/12 08:30:01;;;;;;;1999.90;999.90;;;19.70;99.90;;;;;;5033015;28;20045;-71
2023/07/12 08:32:28;;;;;;;1999.90;999.90;;;19.70;99.90;;;;;;5041167;28;20028;-71
2023/07/12 08:34:57;;;;;;;1999.90;999.90;;;19.60;99.90;;;;;;5041971;28;20401;-71
2023/07/12 08:37:24;;;;;;;1999.90;999.90;;;19.60;99.90;;;;;;5038146;28;20048;-71
2023/07/12 08:39:51;;;;;;;1999.90;999.90;;;19.60;99.90;;;;;;5054502;28;20140;-72
2023/07/12 08:42:22;;;;;;;1999.90;999.90;;;19.50;99.90;;;;;;5042175;28;20050;-71
2023/07/12 08:44:48;;;;;;;1999.90;999.90;;;19.70;99.90;;;;;;5042132;28;20082;-71
2023/07/12 08:47:22;;;;;;;1999.90;999.90;;;19.80;99.90;;;;;;5038248;28;20040;-71
2023/07/12 08:49:48;;;;;;;;;;;19.90;99.90;;;;;;5041732;28;20037;-71
2023/07/12 08:52:22;;;;;;;1999.90;999.90;;;20.60;99.90;;;;;;5043956;28;19928;-72
2023/07/12 08:54:49;;;;;;;1999.90;999.90;;;21.60;99.90;;;;;;5033664;28;20106;-71
2023/07/12 08:57:16;;;;;;;340.10;323.52;;;22.50;99.90;;;;;;5027691;28;20056;-71
2023/07/12 09:00:00;;;;;;;308.38;293.42;;;22.50;99.90;;;;;;5037678;28;20447;-71
2023/07/12 09:02:26;;;;;;;1210.53;699.30;;;22.10;99.90;;;;;;5021798;28;20330;-71
2023/07/12 09:04:57;;;;;;;381.30;361.88;;;22.50;99.90;;;;;;5040027;28;20053;-72
2023/07/12 09:07:31;;;;;;;315.27;299.38;;;22.70;99.90;;;;;;5040121;28;20047;-71
2023/07/12 09:09:58;;;;;;;442.17;417.47;;;22.50;99.90;;;;;;5025534;28;20041;-72
2023/07/12 09:12:28;;;;;;;513.60;483.58;;;22.40;99.90;;;;;;5030434;28;20362;-72
2023/07/12 09:14:59;;;;;;;405.40;383.60;;;21.90;99.90;;;;;;5028818;28;20053;-71
2023/07/12 09:17:28;;;;;;;290.25;275.08;;;21.30;99.90;;;;;;5046280;28;20052;-71
2023/07/12 09:19:54;;;;;;;316.17;301.20;;;20.80;99.90;;;;;;5039367;28;20048;-71
2023/07/12 09:22:22;;;;;;;340.63;324.27;;;20.40;99.90;;;;;;5037029;28;20080;-71
2023/07/12 09:24:56;;;;;;;1999.90;999.90;;;20.10;99.90;;;;;;5040055;28;20126;-70
2023/07/12 09:27:24;;;;;;;1999.90;999.90;;;19.90;99.90;;;;;;5054657;28;20044;-71
2023/07/12 09:30:03;;;;;;;1999.90;999.90;;;19.80;99.90;;;;;;5019004;28;20057;-71
2023/07/12 09:32:35;;;;;;;1999.90;999.90;;;19.70;99.90;;;;;;5024690;28;20038;-71
2023/07/12 09:35:25;;;;;;;1999.90;999.90;;;19.80;99.90;;;;;;5042302;28;20057;-72
2023/07/12 09:38:02;;;;;;;1999.90;999.90;;;20.60;99.90;;;;;;5035659;28;20102;-71
2023/07/12 09:40:38;;;;;;;1999.90;999.90;;;21.40;99.90;;;;;;5038576;28;20179;-71
2023/07/12 09:43:12;;;;;;;332.02;316.33;;;21.90;99.90;;;;;;5023485;28;20073;-71
2023/07/12 09:45:38;;;;;;;1999.90;999.90;;;22.20;99.90;;;;;;5049146;28;20056;-71
2023/07/12 09:48:26;;;;;;;451.25;427.35;;;22.60;99.90;;;;;;5039263;28;20662;-71
2023/07/12 09:51:19;;;;;;;544.40;512.80;;;22.60;99.90;;;;;;5052594;28;20048;-71
2023/07/12 09:53:52;;;;;;;533.80;502.83;;;22.60;99.90;;;;;;5034558;28;20032;-71
2023/07/12 09:56:30;;;;;;;640.05;601.40;;;22.50;99.90;;;;;;5033589;28;20107;-72
2023/07/12 09:59:09;;;;;;;617.33;580.45;;;22.50;99.90;;;;;;5033767;28;20045;-71
2023/07/12 10:01:51;;;;;;;624.17;586.53;;;22.60;99.90;;;;;;5029647;28;20041;-71
2023/07/12 10:04:39;;;;;;;737.83;691.97;;;22.60;99.90;;;;;;5040966;28;20095;-71
2023/07/12 10:07:27;;;;;;;684.30;642.78;;;22.90;99.90;;;;;;5039555;28;20124;-71
2023/07/12 10:09:55;;;;;;;698.42;656.00;;;23.10;99.90;;;;;;5039998;28;20040;-71
2023/07/12 10:12:39;;;;;;;702.88;660.13;;;22.90;99.90;;;;;;5037700;28;20036;-71
2023/07/12 10:15:08;;;;;;;705.97;662.03;;;23.00;99.90;;;;;;5044296;28;20183;-73
2023/07/12 10:17:40;;;;;;;715.10;670.95;;;23.20;99.90;;;;;;5041411;28;20048;-71
2023/07/12 10:20:15;;;;;;;468.55;444.92;;;23.40;99.90;;;;;;5029693;28;20037;-71
2023/07/12 10:22:43;;;;;;;289.35;276.52;;;23.60;99.90;;;;;;5026359;28;20056;-70
2023/07/12 10:25:31;;;;;;;235.65;225.55;;;23.50;99.90;;;;;;5053109;28;20401;-71
2023/07/12 10:28:38;;;;;;;480.77;456.67;;;23.00;99.90;;;;;;5051171;28;20661;-71
2023/07/12 10:31:38;;;;;;;505.27;479.58;;;22.70;99.90;;;;;;5036468;28;20045;-70
2023/07/12 10:34:19;;;;;;;410.90;390.98;;;22.60;99.90;;;;;;5028048;28;20049;-71
2023/07/12 10:36:47;;;;;;;310.52;296.60;;;22.90;99.90;;;;;;5037955;28;20048;-70
2023/07/12 10:39:13;;;;;;;191.00;182.75;;;22.90;99.90;;;;;;5042525;28;20457;-70
2023/07/12 10:41:46;;;;;;;336.60;321.58;;;22.80;99.90;;;;;;5038248;28;20038;-70
2023/07/12 10:44:21;;;;;;;308.20;294.15;;;22.70;99.90;;;;;;5035597;28;20044;-70
2023/07/12 10:46:54;;;;;;;283.25;271.08;;;23.00;99.90;;;;;;5039944;28;20045;-70
2023/07/12 10:49:35;;;;;;;184.13;174.25;;;23.00;99.90;;;;;;5023540;28;20102;-70
2023/07/12 10:52:10;;;;;;;63.58;60.60;;;22.90;99.90;;;;;;5029337;28;20033;-70
2023/07/12 10:54:36;;;;;;;156.20;148.13;;;23.00;99.90;;;;;;5033870;28;20068;-72
2023/07/12 10:57:21;;;;;;;86.50;82.38;;;23.20;99.90;;;;;;5025143;28;20631;-71
2023/07/12 10:59:47;;;;;;;46.28;43.88;;;23.40;99.90;;;;;;5027684;28;20538;-70
2023/07/12 11:02:25;;;;;;;50.28;47.85;;;23.60;99.90;;;;;;5031917;28;20415;-70
2023/07/12 11:04:51;;;;;;;179.70;170.80;;;23.60;99.90;;;;;;5019755;28;20064;-69
2023/07/12 11:07:17;;;;;;;69.63;66.60;;;23.50;99.90;;;;;;5041964;28;20063;-70
2023/07/12 11:09:42;;;;;;;102.93;98.13;;;23.60;99.90;;;;;;5025520;28;20041;-69
2023/07/12 11:12:09;;;;;;;100.15;95.65;;;23.70;99.90;;;;;;5027209;28;20037;-70
2023/07/12 11:14:38;;;;;;;124.10;118.72;;;23.90;99.90;;;;;;5009051;28;20174;-70
2023/07/12 11:17:06;;;;;;;140.63;133.77;;;24.00;99.90;;;;;;5022954;28;20053;-70
2023/07/12 11:19:42;;;;;;;104.00;99.20;;;23.90;99.90;;;;;;5023067;28;20497;-70
2023/07/12 11:22:22;;;;;;;84.00;80.22;;;23.80;99.90;;;;;;5031471;28;20052;-71
2023/07/12 11:24:53;;;;;;;86.68;82.75;;;23.80;99.90;;;;;;5029886;28;20398;-70
2023/07/12 11:27:25;;;;;;;75.63;72.15;;;23.80;99.90;;;;;;5032324;28;20405;-70
2023/07/12 11:29:54;;;;;;;77.65;74.35;;;23.90;99.90;;;;;;5038509;28;20512;-70
2023/07/12 11:32:34;;;;;;;81.65;78.05;;;23.80;99.90;;;;;;5044190;28;20475;-69
2023/07/12 11:35:12;;;;;;;91.68;87.65;;;23.60;99.90;;;;;;5034126;28;20037;-70
2023/07/12 11:37:45;;;;;;;101.63;97.10;;;23.40;99.90;;;;;;5043727;28;20459;-70
2023/07/12 11:40:35;;;;;;;84.97;81.23;;;23.30;99.90;;;;;;5039002;28;20560;-70
2023/07/12 11:43:28;;;;;;;77.32;73.90;;;23.40;99.90;;;;;;5038572;28;20049;-69
2023/07/12 11:45:56;;;;;;;67.15;64.15;;;23.60;99.60;;;;;;5049894;28;20099;-70
2023/07/12 11:48:24;;;;;;;67.30;64.18;;;23.40;99.70;;;;;;5035484;28;20055;-70
2023/07/12 11:50:52;;;;;;;89.97;85.88;;;23.40;99.40;;;;;;5035674;28;20042;-70
2023/07/12 11:53:19;;;;;;;134.60;128.15;;;23.40;99.90;;;;;;5036187;28;20492;-71
2023/07/12 11:55:47;;;;;;;352.45;335.10;;;23.50;99.90;;;;;;5039953;28;20044;-70
2023/07/12 11:58:20;;;;;;;97.00;92.75;;;23.70;99.90;;;;;;5037945;28;20039;-70
2023/07/12 12:00:47;;;;;;;116.95;111.75;;;24.10;99.90;;;;;;5044187;28;20047;-70
2023/07/12 12:03:14;;;;;;;70.30;67.13;;;24.00;99.60;;;;;;5042037;28;20072;-69
2023/07/12 12:05:41;;;;;;;88.82;84.82;;;23.70;98.70;;;;;;5035842;28;20051;-70
2023/07/12 12:08:15;;;;;;;71.25;67.97;;;23.30;98.00;;;;;;5043502;28;20045;-70
2023/07/12 12:10:41;;;;;;;81.53;77.95;;;23.00;99.40;;;;;;5055748;28;20063;-70